createdAt,value
2018-09-12T00:00:49.284Z,2.67
2018-09-12T00:03:22.258Z,2.40
2018-09-12T00:06:06.714Z,2.30
2018-09-12T00:08:39.799Z,2.52
2018-09-12T00:11:20.333Z,2.47
2018-09-12T00:13:49.320Z,2.80
2018-09-12T00:19:05.671Z,2.83
2018-09-12T00:25:54.526Z,2.40
2018-09-12T00:28:33.817Z,2.55
2018-09-12T00:31:34.292Z,2.83
2018-09-12T00:34:06.612Z,2.40
2018-09-12T00:36:36.772Z,2.35
2018-09-12T00:47:37.906Z,2.75
2018-09-12T00:50:07.111Z,2.60
2018-09-12T01:02:10.303Z,2.62
2018-09-12T01:11:15.204Z,2.80
2018-09-12T01:13:44.526Z,2.52
2018-09-12T01:16:14.891Z,2.40
2018-09-12T01:18:45.187Z,2.40
2018-09-12T01:21:26.046Z,3.12
2018-09-12T01:23:54.732Z,2.33
2018-09-12T01:32:24.183Z,2.40
2018-09-12T01:34:53.337Z,2.62
2018-09-12T01:37:22.870Z,2.60
2018-09-12T01:39:52.453Z,2.72
2018-09-12T01:42:21.327Z,2.52
2018-09-12T01:53:37.016Z,3.05
2018-09-12T01:56:10.680Z,2.60
2018-09-12T01:58:40.622Z,2.67
2018-09-12T02:01:11.559Z,2.80
2018-09-12T02:03:45.576Z,2.45
2018-09-12T02:06:15.383Z,2.58
2018-09-12T02:08:59.167Z,2.70
2018-09-12T02:36:10.356Z,2.45
2018-09-12T02:38:47.450Z,2.95
2018-09-12T02:41:19.604Z,2.80
2018-09-12T02:51:43.484Z,2.55
2018-09-12T02:55:17.655Z,2.60
2018-09-12T03:01:00.894Z,2.95
2018-09-12T03:03:35.922Z,2.80
2018-09-12T03:06:17.208Z,2.37
2018-09-12T03:08:54.970Z,2.55
2018-09-12T03:11:25.738Z,2.92
2018-09-12T03:13:56.882Z,2.80
2018-09-12T03:19:24.258Z,2.62
2018-09-12T03:33:36.839Z,2.83
2018-09-12T03:37:08.657Z,3.15
2018-09-12T03:39:47.501Z,3.05
2018-09-12T03:42:16.420Z,2.62
2018-09-12T03:44:56.196Z,3.17
2018-09-12T03:47:25.770Z,2.70
2018-09-12T03:50:06.614Z,3.25
2018-09-12T03:53:02.635Z,2.70
2018-09-12T03:59:01.096Z,2.92
2018-09-12T04:01:53.433Z,3.02
2018-09-12T04:04:30.144Z,2.80
2018-09-12T04:11:58.802Z,3.08
2018-09-12T04:14:58.528Z,2.98
2018-09-12T04:17:42.456Z,2.90
2018-09-12T04:23:21.530Z,3.20
2018-09-12T04:25:50.215Z,2.80
2018-09-12T04:28:19.209Z,3.08
2018-09-12T04:30:48.116Z,3.17
2018-09-12T04:36:57.010Z,3.30
2018-09-12T04:39:32.869Z,3.67
2018-09-12T04:42:04.736Z,3.15
2018-09-12T04:44:34.592Z,3.22
2018-09-12T04:47:04.042Z,3.37
2018-09-12T04:49:48.226Z,3.35
2018-09-12T04:54:58.407Z,3.70
2018-09-12T04:57:29.196Z,3.47
2018-09-12T05:00:45.350Z,3.45
2018-09-12T05:03:13.749Z,3.35
2018-09-12T05:05:45.347Z,3.08
2018-09-12T05:08:13.817Z,2.90
2018-09-12T05:10:42.154Z,3.20
2018-09-12T05:13:10.899Z,3.30
2018-09-12T05:15:39.355Z,3.30
2018-09-12T05:18:07.694Z,2.95
2018-09-12T05:20:36.205Z,3.42
2018-09-12T05:23:04.540Z,3.33
2018-09-12T05:25:32.883Z,3.33
2018-09-12T05:28:01.212Z,3.52
2018-09-12T05:30:29.558Z,3.17
2018-09-12T05:32:57.880Z,3.27
2018-09-12T05:35:26.321Z,3.30
2018-09-12T05:37:54.997Z,3.80
2018-09-12T05:40:23.386Z,3.60
2018-09-12T05:42:51.742Z,3.60
2018-09-12T05:45:20.350Z,3.75
2018-09-12T05:47:48.900Z,3.42
2018-09-12T05:50:17.356Z,3.67
2018-09-12T05:52:45.832Z,3.45
2018-09-12T05:55:14.363Z,3.42
2018-09-12T05:57:42.805Z,3.60
2018-09-12T06:00:11.213Z,4.28
2018-09-12T06:02:39.560Z,3.60
2018-09-12T06:05:07.914Z,3.87
2018-09-12T06:07:36.371Z,3.62
2018-09-12T06:10:04.793Z,3.87
2018-09-12T06:12:33.455Z,3.50
2018-09-12T06:15:01.924Z,3.30
2018-09-12T06:17:30.785Z,3.60
2018-09-12T06:19:59.496Z,4.10
2018-09-12T06:22:28.022Z,4.62
2018-09-12T06:24:56.521Z,4.40
2018-09-12T06:27:24.861Z,5.03
2018-09-12T06:29:53.299Z,4.20
2018-09-12T06:32:21.771Z,5.00
2018-09-12T06:34:50.708Z,5.15
2018-09-12T06:37:19.088Z,4.50
2018-09-12T06:39:47.653Z,4.97
2018-09-12T06:42:16.070Z,4.92
2018-09-12T06:44:44.451Z,4.33
2018-09-12T06:47:12.883Z,4.58
2018-09-12T06:49:41.180Z,4.85
2018-09-12T06:52:09.527Z,4.37
2018-09-12T06:54:38.029Z,4.25
2018-09-12T06:57:06.460Z,4.58
2018-09-12T06:59:34.819Z,4.03
2018-09-12T07:02:03.360Z,4.58
2018-09-12T07:04:31.705Z,4.55
2018-09-12T07:07:00.018Z,4.35
2018-09-12T07:09:28.513Z,4.20
2018-09-12T07:11:56.875Z,4.10
2018-09-12T07:14:25.286Z,3.72
2018-09-12T07:16:53.627Z,4.12
2018-09-12T07:19:22.193Z,3.85
2018-09-12T07:21:50.604Z,3.65
2018-09-12T07:24:19.048Z,3.62
2018-09-12T07:26:47.400Z,2.98
2018-09-12T07:29:15.829Z,3.42
2018-09-12T07:31:44.225Z,3.80
2018-09-12T07:34:12.669Z,3.80
2018-09-12T07:36:41.420Z,3.67
2018-09-12T07:39:11.642Z,3.80
2018-09-12T07:41:40.032Z,4.08
2018-09-12T07:44:08.767Z,3.45
2018-09-12T07:46:37.416Z,3.58
2018-09-12T07:49:06.825Z,4.00
2018-09-12T07:51:35.176Z,3.55
2018-09-12T07:54:03.701Z,4.28
2018-09-12T07:56:32.093Z,4.28
2018-09-12T07:59:00.428Z,4.12
2018-09-12T08:01:28.777Z,4.00
2018-09-12T08:03:57.132Z,3.83
2018-09-12T08:06:25.493Z,4.20
2018-09-12T08:08:54.102Z,3.87
2018-09-12T08:11:22.694Z,3.98
2018-09-12T08:13:51.075Z,3.87
2018-09-12T08:16:20.633Z,3.40
2018-09-12T08:18:49.158Z,3.37
2018-09-12T08:21:20.903Z,3.87
2018-09-12T08:23:49.288Z,4.28
2018-09-12T08:26:17.799Z,3.83
2018-09-12T08:28:46.146Z,4.22
2018-09-12T08:31:14.522Z,3.90
2018-09-12T08:33:42.907Z,3.98
2018-09-12T08:36:11.324Z,3.35
2018-09-12T08:38:39.789Z,3.85
2018-09-12T08:41:08.114Z,4.28
2018-09-12T08:43:36.457Z,4.17
2018-09-12T08:46:04.847Z,4.10
2018-09-12T08:48:33.442Z,4.20
2018-09-12T08:51:01.924Z,4.45
2018-09-12T08:53:30.274Z,3.85
2018-09-12T08:55:58.637Z,5.00
2018-09-12T08:58:27.012Z,4.30
2018-09-12T09:00:55.553Z,4.05
2018-09-12T09:03:23.904Z,4.58
2018-09-12T09:05:52.301Z,4.40
2018-09-12T09:08:21.020Z,4.05
2018-09-12T09:10:49.462Z,3.87
2018-09-12T09:13:17.789Z,4.55
2018-09-12T09:15:46.125Z,3.65
2018-09-12T09:18:14.528Z,4.20
2018-09-12T09:20:42.951Z,3.87
2018-09-12T09:23:11.320Z,4.10
2018-09-12T09:25:39.659Z,4.95
2018-09-12T09:28:08.025Z,4.40
2018-09-12T09:30:36.406Z,4.80
2018-09-12T09:33:04.934Z,4.78
2018-09-12T09:35:33.745Z,5.12
2018-09-12T09:38:02.591Z,4.33
2018-09-12T09:40:31.149Z,4.08
2018-09-12T09:42:59.486Z,4.08
2018-09-12T09:45:27.922Z,3.92
2018-09-12T09:47:56.259Z,4.70
2018-09-12T09:50:24.641Z,4.55
2018-09-12T09:52:53.256Z,3.80
2018-09-12T09:55:21.740Z,4.47
2018-09-12T09:57:50.202Z,4.47
2018-09-12T10:00:24.046Z,4.22
2018-09-12T10:02:57.757Z,4.15
2018-09-12T10:06:32.717Z,4.17
2018-09-12T10:09:05.712Z,4.45
2018-09-12T10:11:34.224Z,4.58
2018-09-12T10:14:02.764Z,4.85
2018-09-12T10:16:31.114Z,4.03
2018-09-12T10:18:59.496Z,4.67
2018-09-12T10:21:27.839Z,4.30
2018-09-12T10:23:56.214Z,4.33
2018-09-12T10:26:24.809Z,4.80
2018-09-12T10:28:53.184Z,4.40
2018-09-12T10:31:21.519Z,4.15
2018-09-12T10:33:49.897Z,4.40
2018-09-12T10:36:18.331Z,4.00
2018-09-12T10:38:46.677Z,4.28
2018-09-12T10:41:15.039Z,4.50
2018-09-12T10:43:43.478Z,4.33
2018-09-12T10:46:12.917Z,4.55
2018-09-12T10:48:43.512Z,4.00
2018-09-12T10:51:13.832Z,4.40
2018-09-12T10:53:42.414Z,3.95
2018-09-12T10:56:10.763Z,4.35
2018-09-12T10:58:39.409Z,4.00
2018-09-12T11:01:07.847Z,4.08
2018-09-12T11:03:36.205Z,3.72
2018-09-12T11:06:04.544Z,3.95
2018-09-12T11:08:32.991Z,3.80
2018-09-12T11:11:01.483Z,4.17
2018-09-12T11:13:29.822Z,3.47
2018-09-12T11:15:58.434Z,3.80
2018-09-12T11:18:26.758Z,3.80
2018-09-12T11:20:55.135Z,4.15
2018-09-12T11:23:23.462Z,3.60
2018-09-12T11:25:51.915Z,3.33
2018-09-12T11:28:20.227Z,3.33
2018-09-12T11:30:48.588Z,3.35
2018-09-12T11:33:16.899Z,3.27
2018-09-12T11:35:45.418Z,3.10
2018-09-12T11:38:13.712Z,3.52
2018-09-12T11:40:42.079Z,3.08
2018-09-12T11:43:10.394Z,3.33
2018-09-12T11:45:38.745Z,3.10
2018-09-12T11:48:07.099Z,2.52
2018-09-12T11:50:35.484Z,3.15
2018-09-12T11:53:03.800Z,3.12
2018-09-12T11:55:32.165Z,2.72
2018-09-12T11:58:00.509Z,2.72
2018-09-12T12:00:28.878Z,2.62
2018-09-12T12:02:57.365Z,2.40
2018-09-12T12:05:25.908Z,2.45
2018-09-12T12:07:54.215Z,2.30
2018-09-12T12:10:22.619Z,2.02
2018-09-12T12:12:51.034Z,2.25
2018-09-12T12:15:19.591Z,2.33
2018-09-12T12:17:47.997Z,2.50
2018-09-12T12:20:16.428Z,2.35
2018-09-12T12:22:44.794Z,2.40
2018-09-12T12:25:13.166Z,2.30
2018-09-12T12:27:41.569Z,2.40
2018-09-12T12:30:09.925Z,2.17
2018-09-12T12:32:38.288Z,2.47
2018-09-12T12:35:06.850Z,2.55
2018-09-12T12:37:35.343Z,2.60
2018-09-12T12:40:03.782Z,2.90
2018-09-12T12:42:32.137Z,2.62
2018-09-12T12:45:06.338Z,3.05
2018-09-12T12:47:39.906Z,2.70
2018-09-12T12:50:08.527Z,2.47
2018-09-12T12:52:36.881Z,2.92
2018-09-12T12:55:06.280Z,2.87
2018-09-12T12:57:34.780Z,2.65
2018-09-12T13:00:04.905Z,2.37
2018-09-12T13:02:33.413Z,2.67
2018-09-12T13:05:01.785Z,2.58
2018-09-12T13:07:30.133Z,2.50
2018-09-12T13:09:58.474Z,2.40
2018-09-12T13:12:26.799Z,2.52
2018-09-12T13:14:55.320Z,2.30
2018-09-12T13:17:23.779Z,2.45
2018-09-12T13:19:52.097Z,2.50
2018-09-12T13:22:20.464Z,2.30
2018-09-12T13:24:48.786Z,2.67
2018-09-12T13:27:17.166Z,2.92
2018-09-12T13:29:45.506Z,2.52
2018-09-12T13:32:13.974Z,2.67
2018-09-12T13:34:42.311Z,2.80
2018-09-12T13:37:10.796Z,2.62
2018-09-12T13:39:39.214Z,2.65
2018-09-12T13:42:07.691Z,2.40
2018-09-12T13:44:36.126Z,2.50
2018-09-12T13:47:04.439Z,2.52
2018-09-12T13:49:32.801Z,3.00
2018-09-12T13:52:01.131Z,2.25
2018-09-12T13:54:29.469Z,2.55
2018-09-12T13:56:57.800Z,2.60
2018-09-12T13:59:26.149Z,2.58
2018-09-12T14:01:54.572Z,2.20
2018-09-12T14:04:22.935Z,2.25
2018-09-12T14:06:51.281Z,2.25
2018-09-12T14:09:19.736Z,2.60
2018-09-12T14:11:48.240Z,2.77
2018-09-12T14:14:16.791Z,2.33
2018-09-12T14:16:45.151Z,2.70
2018-09-12T14:19:13.625Z,2.50
2018-09-12T14:21:42.098Z,2.55
2018-09-12T14:24:11.325Z,2.60
2018-09-12T14:26:39.693Z,2.40
2018-09-12T14:29:08.058Z,2.30
2018-09-12T14:31:36.455Z,2.47
2018-09-12T14:34:05.057Z,2.55
2018-09-12T14:36:33.678Z,2.30
2018-09-12T14:39:02.116Z,2.45
2018-09-12T14:41:30.597Z,2.27
2018-09-12T14:43:58.945Z,2.22
2018-09-12T14:46:27.300Z,2.12
2018-09-12T14:48:55.663Z,2.20
2018-09-12T14:51:24.003Z,2.45
2018-09-12T14:53:52.417Z,2.67
2018-09-12T14:56:20.774Z,2.67
2018-09-12T14:58:49.214Z,2.77
2018-09-12T15:01:17.609Z,2.45
2018-09-12T15:03:46.165Z,2.37
2018-09-12T15:06:14.506Z,2.37
2018-09-12T15:08:42.834Z,2.45
2018-09-12T15:11:11.253Z,2.33
2018-09-12T15:13:39.667Z,2.60
2018-09-12T15:16:07.980Z,2.67
2018-09-12T15:18:36.517Z,2.85
2018-09-12T15:21:05.061Z,2.42
2018-09-12T15:23:33.523Z,2.42
2018-09-12T15:26:02.043Z,2.47
2018-09-12T15:28:30.431Z,2.60
2018-09-12T15:31:02.315Z,2.52
2018-09-12T15:33:30.667Z,2.30
2018-09-12T15:35:59.214Z,2.27
2018-09-12T15:38:27.602Z,2.47
2018-09-12T15:40:55.913Z,2.20
2018-09-12T15:43:24.414Z,2.60
2018-09-12T15:45:53.174Z,3.50
2018-09-12T15:48:21.634Z,3.33
2018-09-12T15:50:50.194Z,2.83
2018-09-12T15:53:18.568Z,2.98
2018-09-12T15:55:47.024Z,2.92
2018-09-12T15:58:15.466Z,2.50
2018-09-12T16:00:43.761Z,3.05
2018-09-12T16:03:12.101Z,3.22
2018-09-12T16:05:40.619Z,2.90
2018-09-12T16:08:08.958Z,2.60
2018-09-12T16:10:37.356Z,2.52
2018-09-12T16:13:05.857Z,3.15
2018-09-12T16:15:34.295Z,2.90
2018-09-12T16:18:02.948Z,2.50
2018-09-12T16:20:31.354Z,2.65
2018-09-12T16:22:59.871Z,2.50
2018-09-12T16:25:28.427Z,2.67
2018-09-12T16:27:56.954Z,2.58
2018-09-12T16:30:25.513Z,2.70
2018-09-12T16:32:53.863Z,2.80
2018-09-12T16:35:22.208Z,2.50
2018-09-12T16:37:50.580Z,2.35
2018-09-12T16:40:19.291Z,2.70
2018-09-12T16:42:47.772Z,2.55
2018-09-12T16:45:16.088Z,3.05
2018-09-12T16:47:44.607Z,2.70
2018-09-12T16:50:13.060Z,2.83
2018-09-12T16:52:41.569Z,2.33
2018-09-12T16:55:10.175Z,2.22
2018-09-12T16:57:38.538Z,2.62
2018-09-12T17:00:08.754Z,2.87
2018-09-12T17:02:37.119Z,2.70
2018-09-12T17:05:05.552Z,2.65
2018-09-12T17:07:33.968Z,2.67
2018-09-12T17:10:02.868Z,2.70
2018-09-12T17:12:31.391Z,2.90
2018-09-12T17:14:59.727Z,2.55
2018-09-12T17:17:28.078Z,2.55
2018-09-12T17:19:56.411Z,2.72
2018-09-12T17:22:24.803Z,2.77
2018-09-12T17:24:53.672Z,2.70
2018-09-12T17:27:21.999Z,2.80
2018-09-12T17:29:50.395Z,2.62
2018-09-12T17:32:18.801Z,2.58
2018-09-12T17:34:47.287Z,2.55
2018-09-12T17:37:15.713Z,2.58
2018-09-12T17:39:44.112Z,2.67
2018-09-12T17:42:12.564Z,2.65
2018-09-12T17:44:40.924Z,2.65
2018-09-12T17:47:09.245Z,2.72
2018-09-12T17:49:37.617Z,2.35
2018-09-12T17:52:06.342Z,2.47
2018-09-12T17:54:34.699Z,2.72
2018-09-12T17:57:03.057Z,2.50
2018-09-12T17:59:31.455Z,2.42
2018-09-12T18:01:59.884Z,2.50
2018-09-12T18:04:28.244Z,2.37
2018-09-12T18:06:56.601Z,2.15
2018-09-12T18:09:24.946Z,2.42
2018-09-12T18:11:53.370Z,2.10
2018-09-12T18:14:21.758Z,2.58
2018-09-12T18:16:50.133Z,2.15
2018-09-12T18:19:18.518Z,2.50
2018-09-12T18:21:46.874Z,2.55
2018-09-12T18:24:15.420Z,2.62
2018-09-12T18:26:43.858Z,2.70
2018-09-12T18:29:12.542Z,2.60
2018-09-12T18:31:40.970Z,2.55
2018-09-12T18:34:09.296Z,2.47
2018-09-12T18:36:37.622Z,2.67
2018-09-12T18:39:08.198Z,2.62
2018-09-12T18:41:36.548Z,2.60
2018-09-12T18:44:06.621Z,2.75
2018-09-12T18:46:35.025Z,2.72
2018-09-12T18:49:03.567Z,2.85
2018-09-12T18:51:32.018Z,2.98
2018-09-12T18:54:00.489Z,2.67
2018-09-12T18:56:28.893Z,3.08
2018-09-12T18:58:57.348Z,2.83
2018-09-12T19:01:25.793Z,3.10
2018-09-12T19:03:54.426Z,2.90
2018-09-12T19:06:22.798Z,2.90
2018-09-12T19:08:52.103Z,4.12
2018-09-12T19:11:20.459Z,4.30
2018-09-12T19:13:49.870Z,4.28
2018-09-12T19:16:18.363Z,3.80
2018-09-12T19:18:46.809Z,3.92
2018-09-12T19:21:15.317Z,3.85
2018-09-12T19:23:44.431Z,3.80
2018-09-12T19:26:12.804Z,3.67
2018-09-12T19:28:41.266Z,4.50
2018-09-12T19:31:09.661Z,4.30
2018-09-12T19:33:38.615Z,4.17
2018-09-12T19:36:07.162Z,3.95
2018-09-12T19:38:35.601Z,4.05
2018-09-12T19:41:03.949Z,3.75
2018-09-12T19:43:32.447Z,3.50
2018-09-12T19:46:00.851Z,3.55
2018-09-12T19:48:29.229Z,3.42
2018-09-12T19:50:57.688Z,3.08
2018-09-12T19:53:26.389Z,3.00
2018-09-12T19:55:54.780Z,2.87
2018-09-12T19:58:23.187Z,3.10
2018-09-12T20:00:51.850Z,2.83
2018-09-12T20:03:20.288Z,3.00
2018-09-12T20:05:48.673Z,2.85
2018-09-12T20:08:17.117Z,2.62
2018-09-12T20:10:45.478Z,3.37
2018-09-12T20:13:14.169Z,2.52
2018-09-12T20:15:42.574Z,3.17
2018-09-12T20:18:11.027Z,2.85
2018-09-12T20:20:39.542Z,2.80
2018-09-12T20:23:07.957Z,2.98
2018-09-12T20:25:36.478Z,3.00
2018-09-12T20:28:05.259Z,2.92
2018-09-12T20:30:34.022Z,3.22
2018-09-12T20:33:03.509Z,3.05
2018-09-12T20:35:31.913Z,3.20
2018-09-12T20:38:00.288Z,2.95
2018-09-12T20:40:28.673Z,3.20
2018-09-12T20:42:57.317Z,3.40
2018-09-12T20:45:25.616Z,2.92
2018-09-12T20:47:54.044Z,2.92
2018-09-12T20:50:22.465Z,2.87
2018-09-12T20:52:50.941Z,3.00
2018-09-12T20:55:19.452Z,3.02
2018-09-12T20:57:47.761Z,2.65
2018-09-12T21:00:16.299Z,2.80
2018-09-12T21:02:56.285Z,2.83
2018-09-12T21:05:24.703Z,2.80
2018-09-12T21:07:53.159Z,2.80
2018-09-12T21:10:21.707Z,3.30
2018-09-12T21:12:50.069Z,2.80
2018-09-12T21:15:18.517Z,3.15
2018-09-12T21:17:46.909Z,2.72
2018-09-12T21:20:15.268Z,2.83
2018-09-12T21:22:43.615Z,2.92
2018-09-12T21:25:12.958Z,2.65
2018-09-12T21:27:41.402Z,2.70
2018-09-12T21:30:09.858Z,2.95
2018-09-12T21:32:38.221Z,2.80
2018-09-12T21:35:06.602Z,2.98
2018-09-12T21:37:35.108Z,2.75
2018-09-12T21:40:03.677Z,2.90
2018-09-12T21:42:32.136Z,2.90
2018-09-12T21:45:00.503Z,2.85
2018-09-12T21:47:28.871Z,3.12
2018-09-12T21:49:57.562Z,3.02
2018-09-12T21:52:25.934Z,3.30
2018-09-12T21:54:54.409Z,3.30
2018-09-12T21:57:22.906Z,3.52
2018-09-12T21:59:51.241Z,4.03
2018-09-12T22:02:19.714Z,3.58
2018-09-12T22:04:48.024Z,3.85
2018-09-12T22:07:16.418Z,3.87
2018-09-12T22:09:44.867Z,3.55
2018-09-12T22:12:13.272Z,3.25
2018-09-12T22:14:41.604Z,3.45
2018-09-12T22:17:10.074Z,3.70
2018-09-12T22:19:38.358Z,3.62
2018-09-12T22:22:06.993Z,3.40
2018-09-12T22:24:35.447Z,3.35
2018-09-12T22:27:03.792Z,3.58
2018-09-12T22:29:32.175Z,3.55
2018-09-12T22:32:00.729Z,3.02
2018-09-12T22:34:29.115Z,3.50
2018-09-12T22:36:57.589Z,3.70
2018-09-12T22:39:25.937Z,3.25
2018-09-12T22:41:54.245Z,3.52
2018-09-12T22:44:23.386Z,3.17
2018-09-12T22:46:51.713Z,3.55
2018-09-12T22:49:20.156Z,3.33
2018-09-12T22:51:48.487Z,3.25
2018-09-12T22:54:16.914Z,3.12
2018-09-12T22:56:45.387Z,3.40
2018-09-12T22:59:13.908Z,3.02
2018-09-12T23:01:42.255Z,3.17
2018-09-12T23:04:10.641Z,3.30
2018-09-12T23:06:39.604Z,3.10
2018-09-12T23:09:09.247Z,3.05
2018-09-12T23:11:37.858Z,3.58
2018-09-12T23:14:06.951Z,3.25
2018-09-12T23:16:35.493Z,2.80
2018-09-12T23:19:03.881Z,3.17
2018-09-12T23:21:32.266Z,3.20
2018-09-12T23:24:00.641Z,2.90
2018-09-12T23:26:29.124Z,2.92
2018-09-12T23:28:57.710Z,3.37
2018-09-12T23:31:26.047Z,2.83
2018-09-12T23:33:54.812Z,2.98
2018-09-12T23:36:23.828Z,2.95
2018-09-12T23:38:52.122Z,3.05
2018-09-12T23:41:20.585Z,3.25
2018-09-12T23:43:48.985Z,3.30
2018-09-12T23:46:17.338Z,3.25
2018-09-12T23:48:45.734Z,3.40
2018-09-12T23:51:14.096Z,3.52
2018-09-12T23:53:42.442Z,3.00
2018-09-12T23:56:10.830Z,3.00
2018-09-12T23:58:39.254Z,3.20
